• Join FlightAware (Why Join?)
  • Login
  • US Flag 
06:17PM EST


 

Airport Tracker/Info


-or-


 

Live Flight TrackerFlight Track Log ✈ DAL8887 ✈ 23-Jun-2013 ✈ KMIA - KATL

Flight Track Log - Related Links

Times and Time Zones

All times are in EDT time to prevent confusion due to time zone crossing. See the DAL8887 flight status page for this flight to view local times or setup timezone preferences in your user account.

Time Position Orientation Groundspeed Altitude Reporting Facility
EDT Latitude Longitude Course Direction KTS MPH feet Rate Location/Type
09:33PM 25.8086 -80.1847 North 261 300 5,300  Level Miami Center
09:34PM 25.8797 -80.1728 North 296 341 7,000 840 Climbing Miami Center
09:35PM 25.9433 -80.2347 319° Northwest 291 335 7,100 1,380 Climbing Miami Center
09:36PM 25.9983 -80.2872 319° Northwest 300 345 9,700 2,580 Climbing Miami Center
09:38PM 26.1136 -80.3553 332° Northwest 355 409 13,300 2,820 Climbing Miami Center
09:39PM 26.2106 -80.4158 331° Northwest 372 428 16,700 3,540 Climbing Miami Center
09:40PM 26.3239 -80.4772 334° Northwest 405 466 20,400 3,120 Climbing Miami Center
09:41PM 26.4228 -80.5244 337° Northwest 423 487 23,000 2,580 Climbing Miami Center
09:42PM 26.5508 -80.5864 337° Northwest 441 507 25,600 2,460 Climbing Miami Center
09:43PM 26.6542 -80.6269 341° North 447 514 28,100 2,400 Climbing Miami Center
09:44PM 26.7722 -80.6678 343° North 447 514 30,600 1,740 Climbing Miami Center
09:45PM 26.8900 -80.7114 342° North 441 507 31,600 1,260 Climbing Miami Center
09:46PM 27.0142 -80.7528 343° North 447 514 33,200 1,860 Climbing Miami Center
09:47PM 27.1383 -80.7964 343° North 452 520 35,300 2,040 Climbing Miami Center
09:48PM 27.2583 -80.8381 343° North 457 526 37,300 1,800 Climbing Miami Center
09:49PM 27.3825 -80.8750 345° North 452 520 39,000 1,500 Climbing Miami Center
09:50PM 27.5022 -80.9189 342° North 452 520 40,400 960 Climbing Miami Center
09:51PM 27.6222 -80.9583 344° North 452 520 41,000 240 Climbing Miami Center
09:52PM 27.7442 -81.0003 343° North 452 520 40,900  Descending Miami Center
09:53PM 27.8600 -81.0419 342° North 452 520 41,000  Climbing Miami Center
09:54PM 27.9819 -81.0842 343° North 452 520 41,000  Level Miami Center
09:55PM 28.1139 -81.1361 341° North 452 520 41,000  Level Miami Center
09:56PM 28.2211 -81.1731 343° North 452 520 41,000  Level Miami Center
09:57PM 28.3408 -81.2156 343° North 452 520 41,000  Level Miami Center
09:58PM 28.4756 -81.2631 343° North 463 533 41,000 -60 Level Jacksonville Center
09:59PM 28.5950 -81.3083 342° North 452 520 40,900 -60 Descending Jacksonville Center
10:00PM 28.7144 -81.3492 343° North 447 514 40,900  Level Jacksonville Center
10:01PM 28.8342 -81.3969 341° North 447 514 41,000  Climbing Jacksonville Center
10:02PM 28.9556 -81.4403 343° North 447 514 41,000  Level Jacksonville Center
10:03PM 29.0731 -81.4836 342° North 447 514 41,000 -60 Level Jacksonville Center
10:04PM 29.1944 -81.5294 342° North 447 514 40,900  Descending Jacksonville Center
10:05PM 29.3119 -81.5756 341° North 447 514 41,000  Climbing Jacksonville Center
10:06PM 29.4314 -81.6169 343° North 447 514 41,000  Level Jacksonville Center
10:07PM 29.5528 -81.6656 341° North 447 514 41,000  Level Jacksonville Center
10:08PM 29.6744 -81.7094 343° North 447 514 41,000  Level Jacksonville Center
10:09PM 29.7939 -81.7558 341° North 447 514 41,000  Level Jacksonville Center
10:10PM 29.9153 -81.8000 342° North 447 514 41,000  Level Jacksonville Center
10:11PM 30.0367 -81.8417 343° North 447 514 41,000  Level Jacksonville Center
10:12PM 30.1581 -81.8861 342° North 447 514 41,000  Level Jacksonville Center
10:13PM 30.2797 -81.9353 341° North 447 514 41,000 -60 Level Jacksonville Center
10:14PM 30.4011 -81.9797 342° North 447 514 40,900 -60 Descending Jacksonville Center
10:15PM 30.5183 -82.0244 342° North 447 514 40,900  Level Jacksonville Center
10:16PM 30.6503 -82.0811 340° North 457 526 40,900  Level Jacksonville Center
10:17PM 30.7694 -82.1286 341° North 452 520 41,000  Climbing Jacksonville Center
10:18PM 30.8889 -82.1736 342° North 452 520 41,000 -60 Level Jacksonville Center
10:19PM 31.0100 -82.2186 342° North 452 520 40,900  Descending Jacksonville Center
10:20PM 31.1314 -82.2639 342° North 447 514 41,000  Climbing Jacksonville Center
10:22PM 31.3972 -82.3675 342° North 454 522 41,000  Level Atlanta Center
10:23PM 31.5167 -82.4164 341° North 454 522 41,000 -360 Level Atlanta Center
10:24PM 31.6383 -82.4631 342° North 454 522 40,300 -900 Descending Atlanta Center
10:25PM 31.7581 -82.5100 342° North 449 517 39,300 -1,020 Descending Atlanta Center
10:26PM 31.8922 -82.5639 341° North 449 517 38,300 -1,980 Descending Atlanta Center
10:27PM 32.0056 -82.6233 336° Northwest 449 517 35,400 -2,700 Descending Atlanta Center
10:28PM 32.1069 -82.7172 322° Northwest 449 517 33,000 -1,200 Descending Atlanta Center
10:29PM 32.2058 -82.8164 320° Northwest 460 529 33,000  Level Atlanta Center
10:30PM 32.3072 -82.9133 321° Northwest 465 535 33,000  Level Atlanta Center
10:31PM 32.4061 -83.0081 321° Northwest 470 541 33,000  Level Atlanta Center
10:32PM 32.5069 -83.1078 320° Northwest 470 541 33,000  Level Atlanta Center
10:33PM 32.6058 -83.2028 321° Northwest 470 541 33,000  Level Atlanta Center
10:34PM 32.7086 -83.3056 320° Northwest 470 541 33,000 960 Level Atlanta Center
10:35PM 32.8075 -83.4011 321° Northwest 465 535 35,000 -3,540 Climbing Atlanta Center
10:36PM 32.9081 -83.5019 320° Northwest 465 535 26,000 -6,420 Descending Atlanta Center
10:37PM 33.0067 -83.6003 320° Northwest 465 535 22,200 -3,660 Descending Atlanta Center
10:38PM 33.0986 -83.6967 319° Northwest 465 535 18,700 -3,720 Descending Atlanta Center
10:39PM 33.1500 -83.7500 319° Northwest 424 488 16,200 -3,240 Descending Atlanta TRACON
10:40PM 33.2333 -83.8333 320° Northwest 403 464 13,800 -1,920 Descending Atlanta TRACON
10:41PM 33.3000 -83.9333 309° West 382 440 12,600 -900 Descending Atlanta TRACON
10:42PM 33.3667 -84.0333 309° West 369 425 12,000 -300 Descending Atlanta TRACON
10:43PM 33.4333 -84.1333 309° West 367 422 12,000  Level Atlanta TRACON
10:43PM 33.4833 -84.2000 312° West 331 381 12,000 -240 Level Atlanta TRACON
10:45PM 33.5333 -84.3000 301° West 288 331 11,600 -1,260 Descending Atlanta TRACON
10:45PM 33.5333 -84.3833 270° West 292 336 9,500 -2,100 Descending Atlanta TRACON
10:46PM 33.5431 -84.4250 286° West 282 325 8,500 -2,580 Descending Atlanta Center
10:48PM 33.5500 -84.5500 274° West 245 282 4,100 -2,280 Descending Atlanta TRACON
10:48PM 33.6000 -84.5833 331° Northwest 235 270 3,000 -660 Descending Atlanta TRACON
10:50PM 33.6500 -84.5667 16° North 196 226 2,800 -420 Descending Atlanta TRACON
10:51PM 33.6500 -84.5167 90° East 138 159 2,200 -720 Descending Atlanta TRACON
10:52PM 33.6500 -84.4667 90° East 137 158 1,400 -840 Descending Atlanta TRACON
10:54PM 33.6367 -84.4279 64° Northeast  Level Estimated
11:01PM 33.6367 -84.4279 64° Northeast  Level Estimated